Time;durP1;ratioP1;P1;durP2;ratioP2;P2;SDS_P1;SDS_P2;PMS_P1;PMS_P2;Temp;Humidity;BMP_temperature;BMP_pressure;BME280_temperature;BME280_humidity;BME280_pressure;Samples;Min_cycle;Max_cycle;Signal;HPM_P1;HPM_P2
2022/01/04 00:00:49;;;;;;;6.60;3.60;;;;;;;7.93;89.62;100216.56;5013460;28;20087;-88
2022/01/04 00:03:14;;;;;;;6.53;3.53;;;;;;;7.91;89.93;100209.59;5039127;28;20183;-87
2022/01/04 00:05:40;;;;;;;8.07;3.80;;;;;;;7.89;90.74;100206.13;5032690;28;20757;-87
2022/01/04 00:08:10;;;;;;;9.50;4.00;;;;;;;7.93;90.44;100199.88;5049358;28;20518;-88
2022/01/04 00:10:36;;;;;;;8.98;3.80;;;;;;;7.91;90.17;100199.03;5049111;28;20054;-87
2022/01/04 00:13:23;;;;;;;11.32;4.45;;;;;;;7.89;89.85;100196.47;5049437;28;20036;-88
2022/01/04 00:15:54;;;;;;;9.68;4.28;;;;;;;7.89;90.77;100191.19;5050353;28;20367;-88
2022/01/04 00:18:19;;;;;;;10.88;4.55;;;;;;;7.87;90.62;100192.97;5049441;28;20040;-87
2022/01/04 00:20:47;;;;;;;11.02;4.63;;;;;;;7.85;89.88;100186.88;5050822;28;20056;-88
2022/01/04 00:23:13;;;;;;;7.72;3.92;;;;;;;7.85;90.61;100184.22;5050537;28;20044;-87
2022/01/04 00:25:39;;;;;;;8.23;4.63;;;;;;;7.83;90.66;100180.75;5050931;28;20115;-87
2022/01/04 00:28:07;;;;;;;7.68;4.07;;;;;;;7.81;90.13;100173.78;5050583;28;20140;-88
2022/01/04 00:30:42;;;;;;;8.93;4.05;;;;;;;7.79;90.68;100160.66;5049581;28;20485;-87
2022/01/04 00:33:09;;;;;;;11.93;4.68;;;;;;;7.75;90.48;100149.28;5050372;28;20370;-87
2022/01/04 00:35:35;;;;;;;10.65;4.07;;;;;;;7.75;90.51;100143.16;5049488;28;20041;-88
2022/01/04 00:38:01;;;;;;;9.95;4.25;;;;;;;7.75;90.24;100140.53;5035767;28;20029;-87
2022/01/04 00:40:27;;;;;;;7.95;4.53;;;;;;;7.72;90.07;100128.28;5012782;28;20330;-88
2022/01/04 00:42:58;;;;;;;11.32;4.70;;;;;;;7.70;90.70;100130.06;5028604;28;20041;-87
2022/01/04 00:45:25;;;;;;;7.32;4.65;;;;;;;7.71;90.29;100123.03;5031222;28;20058;-88
2022/01/04 00:50:20;;;;;;;6.60;4.28;;;;;;;7.68;90.78;100117.81;5049305;28;20029;-87
2022/01/04 00:52:46;;;;;;;7.57;4.15;;;;;;;7.70;90.21;100122.16;5050564;28;20087;-88
2022/01/04 00:55:11;;;;;;;8.90;4.30;;;;;;;7.69;90.23;100123.09;5049100;28;20128;-88
2022/01/04 00:57:37;;;;;;;7.07;4.13;;;;;;;7.69;90.07;100120.44;5032269;28;20021;-87
2022/01/04 01:00:07;;;;;;;6.35;3.85;;;;;;;7.71;90.62;100109.84;5049140;28;20045;-87
2022/01/04 01:02:32;;;;;;;10.32;4.20;;;;;;;7.68;90.32;100102.88;5050246;28;20366;-88
2022/01/04 01:04:58;;;;;;;8.70;3.67;;;;;;;7.68;89.87;100091.47;5050358;28;20031;-88
2022/01/04 01:07:23;;;;;;;12.27;4.32;;;;;;;7.66;90.13;100096.78;5048883;28;20037;-88
2022/01/04 01:12:50;;;;;;;7.57;4.00;;;;;;;7.60;90.83;100094.28;5030818;28;20243;-87
2022/01/04 01:15:16;;;;;;;6.80;3.90;;;;;;;7.63;90.30;100099.47;5012878;28;20041;-87
2022/01/04 01:17:41;;;;;;;8.85;4.28;;;;;;;7.65;90.42;100104.72;5030004;28;20390;-88
2022/01/04 01:20:09;;;;;;;6.78;4.18;;;;;;;7.63;90.60;100095.97;5033784;28;20056;-87
2022/01/04 01:22:36;;;;;;;5.95;3.28;;;;;;;7.60;90.24;100089.00;5032450;28;20438;-88
2022/01/04 01:25:02;;;;;;;9.88;3.80;;;;;;;7.60;90.58;100091.66;5032189;28;20069;-88
2022/01/04 01:27:27;;;;;;;9.20;4.55;;;;;;;7.59;90.40;100092.56;5015858;28;20072;-88
2022/01/04 01:29:53;;;;;;;6.68;4.13;;;;;;;7.58;90.47;100077.63;4983276;28;20353;-86
2022/01/04 01:32:18;;;;;;;5.50;3.58;;;;;;;7.59;90.15;100078.50;5032351;28;20037;-88
2022/01/04 01:34:44;;;;;;;8.93;4.28;;;;;;;7.58;90.77;100079.41;5032232;28;20068;-87
2022/01/04 01:37:10;;;;;;;5.88;3.65;;;;;;;7.57;90.28;100070.66;5039066;28;20074;-87
2022/01/04 01:39:35;;;;;;;7.05;3.65;;;;;;;7.54;90.94;100068.06;5052326;28;20111;-87
2022/01/04 01:42:02;;;;;;;12.07;4.60;;;;;;;7.53;90.33;100056.66;5053290;28;20171;-88
2022/01/04 01:44:29;;;;;;;7.72;4.00;;;;;;;7.52;90.84;100056.72;5053235;28;20033;-87
2022/01/04 01:46:56;;;;;;;12.25;4.32;;;;;;;7.48;90.91;100057.66;5035623;28;20098;-87
2022/01/04 01:49:21;;;;;;;7.72;4.47;;;;;;;7.46;90.74;100056.81;5051938;28;20053;-87
2022/01/04 01:51:47;;;;;;;10.88;4.60;;;;;;;7.43;90.83;100049.00;5051748;28;20477;-87
2022/01/04 01:54:13;;;;;;;7.60;4.30;;;;;;;7.45;91.03;100044.56;5035433;28;20074;-87
2022/01/04 01:56:38;;;;;;;7.80;4.60;;;;;;;7.42;90.96;100049.88;5052899;28;20106;-88
2022/01/04 01:59:04;;;;;;;7.47;4.80;;;;;;;7.42;90.94;100052.50;5052834;28;20037;-87
2022/01/04 02:01:29;;;;;;;7.32;4.38;;;;;;;7.41;90.95;100046.38;4998335;28;20041;-87
2022/01/04 02:03:55;;;;;;;6.35;4.82;;;;;;;7.41;91.01;100038.47;5031340;28;20342;-87
2022/01/04 02:06:21;;;;;;;10.02;5.05;;;;;;;7.45;91.14;100040.16;5048726;28;20124;-87
2022/01/04 02:08:47;;;;;;;7.97;4.63;;;;;;;7.41;91.35;100038.47;5034854;28;20475;-87
2022/01/04 02:11:12;;;;;;;12.13;4.90;;;;;;;7.41;90.95;100020.03;5034787;28;20136;-87
2022/01/04 02:13:38;;;;;;;9.95;5.38;;;;;;;7.42;91.20;100034.97;5034210;28;20029;-88
2022/01/04 02:16:04;;;;;;;8.68;5.30;;;;;;;7.40;91.22;100022.72;5051128;28;20136;-88
2022/01/04 02:18:30;;;;;;;7.75;5.18;;;;;;;7.42;91.08;100018.25;5052296;28;20021;-88
2022/01/04 02:20:55;;;;;;;12.55;4.97;;;;;;;7.42;90.73;99999.81;5051287;28;20041;-88
2022/01/04 02:23:21;;;;;;;9.10;5.45;;;;;;;7.42;90.43;100005.09;5052450;28;20495;-88
2022/01/04 02:25:48;;;;;;;8.25;5.13;;;;;;;7.43;91.11;100005.06;5052256;28;20041;-87
2022/01/04 02:28:18;;;;;;;9.60;5.38;;;;;;;7.39;90.54;99998.13;5050983;28;20196;-87
2022/01/04 02:30:44;;;;;;;11.32;5.88;;;;;;;7.37;90.95;99997.31;5033973;28;20437;-87
2022/01/04 02:33:10;;;;;;;8.40;4.90;;;;;;;7.39;90.76;100002.53;5052517;28;20323;-88
2022/01/04 02:35:36;;;;;;;10.50;5.18;;;;;;;7.41;90.78;99995.47;5051066;28;20044;-88
2022/01/04 02:38:01;;;;;;;6.65;4.55;;;;;;;7.41;91.10;99996.34;5037842;28;20029;-88
2022/01/04 02:40:27;;;;;;;8.48;5.05;;;;;;;7.39;90.66;99997.25;5030764;28;20400;-87
2022/01/04 02:42:54;;;;;;;8.82;4.10;;;;;;;7.39;90.97;99992.00;5032091;28;20045;-88
2022/01/04 02:45:19;;;;;;;7.20;4.63;;;;;;;7.43;91.34;99991.03;5030807;28;20490;-87
2022/01/04 02:47:45;;;;;;;8.43;4.50;;;;;;;7.37;90.98;99978.88;5030463;28;20128;-87
2022/01/04 02:50:11;;;;;;;6.55;4.50;;;;;;;7.41;91.20;99980.53;5014114;28;20394;-88
2022/01/04 02:52:38;;;;;;;6.00;4.50;;;;;;;7.35;90.94;99975.41;5030526;28;20421;-87
2022/01/04 02:55:12;;;;;;;7.38;4.88;;;;;;;7.37;91.11;99970.97;5038235;28;20028;-88
2022/01/04 02:57:39;;;;;;;9.75;4.45;;;;;;;7.37;90.73;99967.47;5048114;28;20037;-88
2022/01/04 03:00:07;;;;;;;6.47;3.83;;;;;;;7.36;90.46;99963.09;5014003;28;20037;-87
2022/01/04 03:02:33;;;;;;;9.45;4.40;;;;;;;7.34;91.06;99960.50;5031690;28;20063;-87
2022/01/04 03:04:58;;;;;;;6.47;4.00;;;;;;;7.33;90.87;99953.50;5030318;28;20041;-88
2022/01/04 03:07:24;;;;;;;6.20;4.20;;;;;;;7.31;90.68;99948.25;5031316;28;20064;-88
2022/01/04 03:09:49;;;;;;;7.13;3.88;;;;;;;7.28;91.32;99952.75;4997303;28;20033;-87
2022/01/04 03:12:17;;;;;;;6.53;4.20;;;;;;;7.27;90.82;99951.88;5029757;28;20524;-88
2022/01/04 03:14:45;;;;;;;6.40;4.00;;;;;;;7.25;90.65;99945.78;5029661;28;20060;-88
2022/01/04 03:17:11;;;;;;;9.20;4.22;;;;;;;7.29;90.73;99942.19;5013768;28;20037;-88
2022/01/04 03:19:38;;;;;;;9.05;4.20;;;;;;;7.29;91.05;99933.41;5030739;28;20036;-88
2022/01/04 03:22:04;;;;;;;6.97;4.50;;;;;;;7.28;90.25;99924.63;5028136;28;20486;-88
2022/01/04 03:24:29;;;;;;;7.63;4.70;;;;;;;7.23;90.74;99913.34;5029545;28;20048;-87
2022/01/04 03:26:55;;;;;;;9.95;4.85;;;;;;;7.25;91.26;99914.19;5041254;28;20037;-87
2022/01/04 03:29:21;;;;;;;10.20;4.72;;;;;;;7.25;90.65;99902.78;5032936;28;20384;-87
2022/01/04 03:31:47;;;;;;;8.65;5.30;;;;;;;7.25;90.34;99903.66;5050968;28;20037;-87
2022/01/04 03:34:12;;;;;;;8.70;4.25;;;;;;;7.27;90.46;99900.97;5049725;28;20060;-84
2022/01/04 03:36:39;;;;;;;9.50;4.93;;;;;;;7.26;90.42;99891.34;5047710;28;20037;-87
2022/01/04 03:39:06;;;;;;;10.00;5.68;;;;;;;7.25;91.02;99879.09;5013222;28;20375;-88
2022/01/04 03:41:37;;;;;;;8.02;5.57;;;;;;;7.25;90.40;99872.03;5013647;28;20095;-87
2022/01/04 03:44:07;;;;;;;9.02;4.60;;;;;;;7.23;90.56;99860.69;5030246;28;20044;-87
2022/01/04 03:46:33;;;;;;;9.93;5.68;;;;;;;7.20;90.50;99844.09;5030851;28;20045;-87
2022/01/04 03:48:59;;;;;;;9.70;5.30;;;;;;;7.17;90.82;99844.16;5012555;28;20469;-87
2022/01/04 03:51:24;;;;;;;12.23;6.35;;;;;;;7.18;91.36;99848.53;5030441;28;20037;-88
2022/01/04 03:53:50;;;;;;;11.52;5.82;;;;;;;7.16;91.48;99843.28;4996583;28;20064;-88
2022/01/04 03:56:16;;;;;;;8.68;5.78;;;;;;;7.17;90.59;99846.78;5012551;28;20115;-87
2022/01/04 03:58:41;;;;;;;9.88;5.75;;;;;;;7.16;90.94;99840.66;5013044;28;20122;-88
2022/01/04 04:01:07;;;;;;;9.82;5.97;;;;;;;7.15;90.50;99828.41;5031520;28;20048;-87
2022/01/04 04:03:33;;;;;;;11.88;6.32;;;;;;;7.14;91.52;99828.44;5031888;28;20049;-87
2022/01/04 04:05:59;;;;;;;11.68;5.75;;;;;;;7.10;90.90;99825.88;5049653;28;20043;-88
2022/01/04 04:08:25;;;;;;;10.80;6.40;;;;;;;7.10;91.04;99825.88;5048804;28;20094;-87
2022/01/04 04:10:51;;;;;;;10.70;6.13;;;;;;;7.10;91.02;99820.63;5049085;28;20389;-87
2022/01/04 04:13:16;;;;;;;8.95;5.07;;;;;;;7.11;91.80;99821.47;5050545;28;20114;-88
2022/01/04 04:15:43;;;;;;;9.80;4.90;;;;;;;7.10;91.26;99814.50;5042293;28;20038;-87
2022/01/04 04:18:09;;;;;;;9.45;5.35;;;;;;;7.10;91.40;99806.59;5030437;28;20025;-88
2022/01/04 04:20:37;;;;;;;10.50;5.15;;;;;;;7.09;91.14;99802.22;5028920;28;20065;-87
2022/01/04 04:23:04;;;;;;;8.57;5.10;;;;;;;7.06;91.31;99794.41;5037384;28;20055;-87
2022/01/04 04:25:30;;;;;;;10.98;5.55;;;;;;;7.06;91.65;99795.25;5030160;28;20034;-88
2022/01/04 04:27:55;;;;;;;8.38;4.97;;;;;;;7.06;91.46;99786.50;5039236;28;20401;-87
2022/01/04 04:30:21;;;;;;;10.98;5.57;;;;;;;7.06;91.49;99791.75;5023381;28;20057;-87
2022/01/04 04:32:47;;;;;;;10.40;5.63;;;;;;;7.04;91.92;99797.06;5039140;28;20477;-88
2022/01/04 04:35:13;;;;;;;10.05;6.15;;;;;;;7.02;91.10;99792.72;5024700;28;20397;-87
2022/01/04 04:37:39;;;;;;;8.85;5.45;;;;;;;7.02;91.60;99798.88;5023121;28;20032;-87
2022/01/04 04:40:05;;;;;;;8.68;5.30;;;;;;;7.00;91.78;99781.41;5024695;28;20049;-88
2022/01/04 04:42:31;;;;;;;11.55;5.80;;;;;;;7.02;92.20;99792.72;5041718;28;20037;-87
2022/01/04 04:44:57;;;;;;;11.57;5.47;;;;;;;7.04;91.73;99785.66;5038170;28;20022;-87
2022/01/04 04:47:22;;;;;;;9.25;5.45;;;;;;;7.03;91.67;99786.59;5039155;28;20470;-87
2022/01/04 04:49:52;;;;;;;10.65;5.63;;;;;;;7.04;90.98;99781.25;5024104;28;20053;-88
2022/01/04 04:52:18;;;;;;;10.53;5.17;;;;;;;7.04;91.61;99783.88;5039037;28;20033;-87
2022/01/04 04:54:43;;;;;;;14.63;5.78;;;;;;;7.05;91.75;99782.16;5044033;28;20094;-87
2022/01/04 04:57:09;;;;;;;10.57;5.32;;;;;;;7.03;92.27;99786.59;5036000;28;20037;-87
2022/01/04 04:59:34;;;;;;;11.48;6.00;;;;;;;7.02;91.95;99782.19;5036376;28;20520;-87
2022/01/04 05:02:01;;;;;;;12.98;6.15;;;;;;;7.00;91.95;99790.16;5032388;28;20050;-87
2022/01/04 05:04:27;;;;;;;14.48;6.47;;;;;;;6.99;92.54;99779.66;5017587;28;20042;-87
2022/01/04 05:06:53;;;;;;;12.15;6.13;;;;;;;7.01;91.82;99781.34;5053821;28;20040;-87
2022/01/04 05:09:19;;;;;;;13.02;6.10;;;;;;;6.97;91.84;99774.41;5052358;28;20021;-88
2022/01/04 05:11:45;;;;;;;11.25;5.88;;;;;;;6.98;91.88;99778.78;5053503;28;20132;-87
2022/01/04 05:14:10;;;;;;;14.10;6.22;;;;;;;6.99;91.71;99790.19;5052192;28;20484;-88
2022/01/04 05:16:36;;;;;;;10.20;6.07;;;;;;;7.00;91.66;99782.25;5031157;28;20045;-88
2022/01/04 05:19:01;;;;;;;12.02;6.22;;;;;;;7.00;91.51;99773.50;5025689;28;20029;-87
2022/01/04 05:21:27;;;;;;;14.52;6.75;;;;;;;6.97;91.68;99763.88;5045468;28;20026;-87
2022/01/04 05:23:54;;;;;;;10.32;6.65;;;;;;;6.99;91.69;99758.59;5044208;28;20111;-88
2022/01/04 05:26:20;;;;;;;14.57;6.47;;;;;;;6.97;91.83;99748.09;5026690;28;20075;-87
2022/01/04 05:28:46;;;;;;;11.07;6.85;;;;;;;6.98;91.39;99755.09;5041948;28;20045;-88
2022/01/04 05:31:14;;;;;;;10.85;6.88;;;;;;;6.97;92.14;99755.13;5044110;28;20039;-88
2022/01/04 05:33:40;;;;;;;12.98;7.03;;;;;;;6.94;92.38;99742.91;5023964;28;20043;-88
2022/01/04 05:36:06;;;;;;;13.68;7.10;;;;;;;6.95;92.45;99749.03;5032959;28;20075;-87
2022/01/04 05:38:31;;;;;;;11.27;6.10;;;;;;;6.95;92.24;99727.97;5031335;28;20064;-87
2022/01/04 05:40:57;;;;;;;10.52;6.57;;;;;;;6.96;91.86;99721.81;5042493;28;20052;-87
2022/01/04 05:43:23;;;;;;;14.57;7.18;;;;;;;6.93;92.45;99714.00;5041785;28;20461;-87
2022/01/04 05:45:48;;;;;;;8.77;6.18;;;;;;;6.90;92.38;99709.69;5041618;28;20028;-87
2022/01/04 05:48:14;;;;;;;13.65;7.35;;;;;;;6.93;92.12;99716.66;5028817;28;20044;-87
2022/01/04 05:50:39;;;;;;;17.15;7.45;;;;;;;6.89;92.01;99711.44;5025592;28;20037;-87
2022/01/04 05:53:06;;;;;;;15.80;7.50;;;;;;;6.87;92.02;99715.00;5043639;28;20033;-87
2022/01/04 05:55:31;;;;;;;13.48;7.53;;;;;;;6.83;93.21;99710.75;5040630;28;20025;-87
2022/01/04 05:57:57;;;;;;;15.20;7.72;;;;;;;6.84;93.17;99715.94;5027095;28;20087;-87
2022/01/04 06:00:23;;;;;;;13.02;7.80;;;;;;;6.83;93.35;99714.22;5010482;28;20107;-87
2022/01/04 06:02:48;;;;;;;15.75;8.38;;;;;;;6.83;93.21;99727.38;5009356;28;20489;-87
2022/01/04 06:05:14;;;;;;;15.95;8.07;;;;;;;6.83;93.13;99718.63;5046086;28;20056;-85
2022/01/04 06:07:39;;;;;;;17.38;8.32;;;;;;;6.83;93.51;99718.63;5045884;28;20042;-87
2022/01/04 06:10:07;;;;;;;15.52;7.78;;;;;;;6.81;93.08;99716.03;5032321;28;20041;-87
2022/01/04 06:15:06;;;;;;;18.23;8.77;;;;;;;6.83;93.20;99697.59;5033534;28;20033;-87
2022/01/04 06:17:34;;;;;;;19.88;9.60;;;;;;;6.78;94.20;99705.59;5033374;28;20033;-87
2022/01/04 06:20:00;;;;;;;16.05;8.65;;;;;;;6.76;93.78;99707.38;5033696;28;20106;-87
2022/01/04 06:22:28;;;;;;;18.77;9.02;;;;;;;6.82;93.59;99698.47;5032237;28;20033;-87
2022/01/04 06:24:54;;;;;;;20.80;9.75;;;;;;;6.79;93.77;99694.16;5031834;28;20519;-87
2022/01/04 06:27:20;;;;;;;17.27;9.68;;;;;;;6.77;94.15;99695.94;5015374;28;20034;-88
2022/01/04 06:29:46;;;;;;;20.30;9.70;;;;;;;6.81;94.05;99687.09;5031885;28;20357;-87
2022/01/04 06:32:12;;;;;;;19.73;10.45;;;;;;;6.80;94.10;99700.28;5033587;28;20132;-86
2022/01/04 06:34:39;;;;;;;15.65;8.85;;;;;;;6.80;94.34;99708.16;5033412;28;20507;-85
2022/01/04 06:37:06;;;;;;;16.98;9.63;;;;;;;6.78;94.88;99702.97;5020371;28;20049;-85
2022/01/04 06:39:32;;;;;;;20.88;10.32;;;;;;;6.76;94.66;99711.78;5052380;28;20083;-87
2022/01/04 06:41:58;;;;;;;15.27;9.20;;;;;;;6.69;95.56;99690.03;5043689;28;20458;-87
2022/01/04 06:44:23;;;;;;;24.10;10.93;;;;;;;6.67;95.97;99695.31;5046928;28;20044;-86
2022/01/04 06:46:49;;;;;;;18.00;10.75;;;;;;;6.68;95.82;99690.94;5046345;28;20021;-88
2022/01/04 06:49:16;;;;;;;19.25;11.15;;;;;;;6.66;96.38;99695.38;5048730;28;20053;-89
2022/01/04 06:51:43;;;;;;;24.35;10.00;;;;;;;6.69;95.66;99695.28;5045856;28;20531;-89
2022/01/04 06:54:10;;;;;;;17.83;10.18;;;;;;;6.67;96.21;99683.94;5046135;28;20495;-88
2022/01/04 06:56:37;;;;;;;22.15;10.85;;;;;;;6.69;95.74;99671.59;5047618;28;20070;-89
2022/01/04 06:59:03;;;;;;;20.40;10.65;;;;;;;6.64;96.31;99668.22;5030855;28;20053;-89
2022/01/04 07:01:29;;;;;;;18.48;10.57;;;;;;;6.63;96.33;99662.09;5013697;28;20033;-89
2022/01/04 07:03:55;;;;;;;19.55;11.40;;;;;;;6.65;95.96;99668.19;5049893;28;20477;-88
2022/01/04 07:06:20;;;;;;;16.92;10.05;;;;;;;6.65;96.26;99664.69;5049190;28;20511;-89
2022/01/04 07:08:46;;;;;;;22.13;11.68;;;;;;;6.65;96.17;99659.41;5033748;28;20079;-88
2022/01/04 07:11:11;;;;;;;24.30;11.63;;;;;;;6.63;96.02;99656.84;5050583;28;20047;-89
2022/01/04 07:13:37;;;;;;;22.15;11.40;;;;;;;6.64;96.22;99650.66;5034157;28;20044;-88
2022/01/04 07:16:02;;;;;;;20.10;12.15;;;;;;;6.65;95.80;99655.03;5024818;28;20072;-89
2022/01/04 07:18:28;;;;;;;19.02;11.13;;;;;;;6.65;96.19;99652.41;5031951;28;20063;-88
2022/01/04 07:20:53;;;;;;;20.38;11.45;;;;;;;6.67;95.97;99647.94;5014568;28;20053;-88
2022/01/04 07:23:19;;;;;;;19.85;11.82;;;;;;;6.65;96.32;99648.91;5030742;28;20039;-88
2022/01/04 07:25:44;;;;;;;24.00;11.80;;;;;;;6.64;95.62;99636.66;5031043;28;20037;-89
2022/01/04 07:28:10;;;;;;;20.58;12.88;;;;;;;6.65;96.02;99630.47;5031654;28;20123;-89
2022/01/04 07:30:36;;;;;;;20.13;11.98;;;;;;;6.64;96.03;99623.50;5034808;28;20090;-88
2022/01/04 07:33:01;;;;;;;20.65;12.60;;;;;;;6.63;96.35;99613.91;5014871;28;20500;-89
2022/01/04 07:35:27;;;;;;;23.65;12.52;;;;;;;6.61;96.52;99607.81;5022085;28;20036;-88
2022/01/04 07:37:53;;;;;;;18.15;11.60;;;;;;;6.63;96.12;99600.75;5015318;28;20059;-89
2022/01/04 07:40:20;;;;;;;21.05;12.75;;;;;;;6.64;95.84;99611.22;5041042;28;20505;-88
2022/01/04 07:42:46;;;;;;;22.35;13.35;;;;;;;6.62;96.45;99609.53;5026323;28;20071;-88
2022/01/04 07:45:12;;;;;;;17.85;11.40;;;;;;;6.60;96.25;99612.22;5046590;28;20503;-87
2022/01/04 07:47:38;;;;;;;20.30;12.68;;;;;;;6.63;95.82;99614.75;5031576;28;20049;-89
2022/01/04 07:50:04;;;;;;;20.02;12.55;;;;;;;6.62;96.55;99630.56;5029694;28;20506;-88
2022/01/04 07:52:29;;;;;;;22.67;12.98;;;;;;;6.64;96.30;99636.66;5013609;28;20045;-88
2022/01/04 07:54:55;;;;;;;20.35;13.13;;;;;;;6.65;96.79;99635.75;5012945;28;20041;-88
2022/01/04 07:57:20;;;;;;;28.00;13.30;;;;;;;6.64;96.24;99632.25;5031458;28;20079;-89
2022/01/04 07:59:46;;;;;;;22.67;14.52;;;;;;;6.67;96.49;99639.19;5013766;28;20033;-89
2022/01/04 08:02:11;;;;;;;24.15;14.20;;;;;;;6.66;96.12;99637.50;5030333;28;20440;-89
2022/01/04 08:04:37;;;;;;;23.85;13.90;;;;;;;6.68;95.76;99627.78;5030584;28;20038;-89
2022/01/04 08:07:02;;;;;;;24.25;14.63;;;;;;;6.68;95.95;99619.91;5014263;28;20060;-88
2022/01/04 08:09:29;;;;;;;22.40;14.38;;;;;;;6.68;96.48;99626.03;5014073;28;20350;-89
2022/01/04 08:11:55;;;;;;;24.80;14.18;;;;;;;6.69;96.38;99618.97;4997511;28;20033;-89
2022/01/04 08:14:20;;;;;;;21.70;14.25;;;;;;;6.68;96.31;99617.28;5013381;28;20413;-89
2022/01/04 08:16:45;;;;;;;25.67;15.75;;;;;;;6.63;95.98;99620.00;5031211;28;20048;-89
2022/01/04 08:19:11;;;;;;;29.17;17.52;;;;;;;6.66;96.02;99630.44;5013565;28;20106;-88
2022/01/04 08:21:37;;;;;;;23.75;15.82;;;;;;;6.66;95.90;99633.09;5031252;28;20342;-89
2022/01/04 08:24:02;;;;;;;28.98;16.88;;;;;;;6.65;96.27;99635.75;5029774;28;20041;-89
2022/01/04 08:26:28;;;;;;;24.70;15.25;;;;;;;6.66;96.52;99635.72;5029693;28;20044;-90
2022/01/04 08:28:55;;;;;;;26.85;16.00;;;;;;;6.66;96.22;99640.97;5034619;28;20335;-90
2022/01/04 08:31:20;;;;;;;24.35;17.35;;;;;;;6.63;96.72;99633.16;5034117;28;20503;-89
2022/01/04 08:33:46;;;;;;;27.45;17.67;;;;;;;6.67;96.60;99639.19;5017225;28;20041;-89
2022/01/04 08:36:11;;;;;;;27.23;15.57;;;;;;;6.69;96.79;99637.41;5017462;28;20035;-89
2022/01/04 08:38:39;;;;;;;26.17;16.77;;;;;;;6.68;96.50;99644.44;5017247;28;20060;-89
2022/01/04 08:41:05;;;;;;;32.85;20.38;;;;;;;6.70;96.23;99641.78;5033898;28;20100;-88
2022/01/04 08:43:31;;;;;;;30.00;18.58;;;;;;;6.71;95.95;99638.22;5034962;28;20049;-89
2022/01/04 08:45:56;;;;;;;33.30;20.55;;;;;;;6.68;96.28;99652.31;5033681;28;20069;-89
2022/01/04 08:48:22;;;;;;;30.67;18.73;;;;;;;6.69;96.51;99655.81;5016989;28;20382;-89
2022/01/04 08:50:49;;;;;;;29.25;18.63;;;;;;;6.72;96.25;99657.50;5017251;28;20354;-88
2022/01/04 08:53:15;;;;;;;24.90;16.25;;;;;;;6.71;96.46;99648.75;5016930;28;20064;-89
2022/01/04 08:55:40;;;;;;;29.73;18.15;;;;;;;6.73;96.39;99651.38;5034802;28;20060;-89
2022/01/04 08:58:07;;;;;;;31.10;18.02;;;;;;;6.75;96.29;99666.22;5033494;28;20073;-88
2022/01/04 09:00:33;;;;;;;31.20;19.25;;;;;;;6.75;96.80;99663.56;5016846;28;20022;-89
2022/01/04 09:03:00;;;;;;;30.40;16.92;;;;;;;6.75;96.65;99658.31;5016875;28;20049;-89
2022/01/04 09:05:26;;;;;;;27.35;18.77;;;;;;;6.78;96.36;99665.25;5034659;28;20413;-89
2022/01/04 09:07:52;;;;;;;33.47;19.63;;;;;;;6.79;96.55;99659.94;5033598;28;20041;-89
2022/01/04 09:10:17;;;;;;;28.52;19.20;;;;;;;6.81;96.34;99655.50;5016765;28;20362;-89
2022/01/04 09:12:59;;;;;;;30.33;18.98;;;;;;;6.80;96.63;99656.44;5033220;28;20041;-88
2022/01/04 09:20:40;;;;;;;34.55;23.50;;;;;;;6.89;95.73;99644.78;5022531;28;20052;-90
2022/01/04 09:23:05;;;;;;;32.83;19.75;;;;;;;6.85;96.27;99635.25;5016681;28;20037;-89
2022/01/04 09:25:31;;;;;;;31.17;19.55;;;;;;;6.87;95.48;99647.47;5034213;28;20501;-89
2022/01/04 09:27:57;;;;;;;41.22;23.50;;;;;;;6.91;95.85;99658.78;5033012;28;20183;-89
2022/01/04 09:30:23;;;;;;;35.47;21.08;;;;;;;6.92;95.82;99668.38;5033071;28;20446;-89
2022/01/04 09:32:49;;;;;;;34.22;20.98;;;;;;;6.91;95.86;99671.06;5033079;28;20067;-89
2022/01/04 09:35:15;;;;;;;33.70;20.23;;;;;;;6.93;96.16;99669.28;5034433;28;20033;-89
2022/01/04 09:37:41;;;;;;;32.30;19.83;;;;;;;6.91;95.47;99665.81;5016459;28;20199;-90
2022/01/04 09:40:08;;;;;;;36.67;20.98;;;;;;;6.96;95.37;99669.19;5033903;28;20111;-89
2022/01/04 09:42:37;;;;;;;31.98;21.17;;;;;;;6.94;95.21;99674.47;5032947;28;20060;-89
2022/01/04 09:45:03;;;;;;;36.15;22.67;;;;;;;6.90;95.26;99664.94;5016214;28;20124;-89
2022/01/04 09:47:30;;;;;;;32.72;20.17;;;;;;;6.92;95.43;99673.66;5016223;28;20065;-89
2022/01/04 09:49:57;;;;;;;37.03;22.17;;;;;;;6.93;95.48;99675.41;5032772;28;20465;-89
2022/01/04 09:52:23;;;;;;;33.13;20.25;;;;;;;6.95;95.58;99670.97;5032773;28;20033;-89
2022/01/04 09:54:54;;;;;;;36.88;22.63;;;;;;;6.97;95.40;99665.63;5032990;28;20044;-89
2022/01/04 09:57:20;;;;;;;40.08;23.42;;;;;;;6.98;95.30;99655.09;5034242;28;20030;-89
2022/01/04 09:59:46;;;;;;;31.90;19.83;;;;;;;7.01;95.13;99657.63;5016839;28;20029;-89
2022/01/04 10:02:17;;;;;;;41.92;23.65;;;;;;;7.03;95.85;99655.81;5034125;28;20135;-89
2022/01/04 10:04:43;;;;;;;38.65;21.83;;;;;;;7.02;95.46;99661.13;5015959;28;20050;-89
2022/01/04 10:07:10;;;;;;;36.55;21.42;;;;;;;7.04;95.38;99659.31;5034053;28;20033;-89
2022/01/04 10:09:44;;;;;;;33.45;20.48;;;;;;;7.05;95.44;99663.69;5032745;28;20052;-89
2022/01/04 10:12:11;;;;;;;35.10;19.92;;;;;;;7.07;95.29;99664.50;5032815;28;20484;-90
2022/01/04 10:14:41;;;;;;;32.97;19.98;;;;;;;7.04;95.21;99661.94;4999740;28;20021;-89
2022/01/04 10:17:16;;;;;;;32.50;21.08;;;;;;;7.08;95.42;99651.28;5032289;28;20041;-88
2022/01/04 10:19:53;;;;;;;32.20;21.15;;;;;;;7.11;95.35;99642.44;5032430;28;20083;-89
2022/01/04 10:22:24;;;;;;;34.47;21.60;;;;;;;7.11;94.92;99627.50;5033390;28;20112;-89
2022/01/04 10:25:08;;;;;;;35.30;21.63;;;;;;;7.14;94.39;99615.19;5033474;28;20038;-89
2022/01/04 10:27:41;;;;;;;38.28;21.23;;;;;;;7.17;94.52;99617.72;5033728;28;20067;-89
2022/01/04 10:30:15;;;;;;;41.80;22.83;;;;;;;7.15;94.20;99620.41;5032139;28;20034;-89
2022/01/04 10:32:48;;;;;;;35.00;19.77;;;;;;;7.17;94.83;99629.13;5015489;28;20477;-88
2022/01/04 10:35:25;;;;;;;37.35;20.05;;;;;;;7.19;94.64;99632.56;5033384;28;20389;-89
2022/01/04 10:37:52;;;;;;;34.55;22.88;;;;;;;7.19;95.03;99624.66;5015402;28;20480;-89
2022/01/04 10:40:18;;;;;;;32.13;21.38;;;;;;;7.20;93.99;99615.88;5015670;28;20035;-89
2022/01/04 10:42:44;;;;;;;36.30;21.92;;;;;;;7.24;94.82;99616.66;5031669;28;20437;-89
2022/01/04 10:45:28;;;;;;;37.17;21.55;;;;;;;7.25;94.22;99616.63;5015352;28;20065;-89
2022/01/04 10:47:54;;;;;;;36.03;20.92;;;;;;;7.26;93.54;99620.97;5031614;28;20045;-89
2022/01/04 10:50:34;;;;;;;37.67;23.63;;;;;;;7.27;94.36;99620.06;5032251;28;20067;-89
2022/01/04 10:53:00;;;;;;;34.03;21.33;;;;;;;7.27;94.55;99609.53;5032906;28;20034;-89
2022/01/04 10:55:35;;;;;;;34.80;21.63;;;;;;;7.31;94.26;99618.22;5015197;28;20029;-89
2022/01/04 10:58:02;;;;;;;40.25;23.75;;;;;;;7.30;93.69;99630.50;5031463;28;20061;-89
2022/01/04 11:00:28;;;;;;;39.25;22.10;;;;;;;7.31;93.86;99623.47;5033078;28;20144;-89
2022/01/04 11:02:54;;;;;;;32.35;21.60;;;;;;;7.30;94.18;99625.25;5032940;28;20073;-89
2022/01/04 11:05:21;;;;;;;37.60;22.08;;;;;;;7.31;94.87;99632.22;5015396;28;20405;-89
2022/01/04 11:08:12;;;;;;;40.85;24.20;;;;;;;7.33;93.83;99622.53;5015040;28;20469;-89
2022/01/04 11:10:38;;;;;;;;;;;;;;;7.37;94.10;99625.06;5031593;28;20092;-87
2022/01/04 11:13:03;;;;;;;38.40;24.00;;;;;;;7.32;94.78;99626.06;5031379;28;20342;-89
2022/01/04 11:15:30;;;;;;;36.53;23.13;;;;;;;7.25;94.67;99635.06;5014647;28;20025;-89
2022/01/04 11:17:56;;;;;;;37.38;23.27;;;;;;;7.26;95.21;99625.38;5014649;28;20034;-89
2022/01/04 11:20:22;;;;;;;27.80;18.52;;;;;;;7.21;95.80;99627.28;5031373;28;20038;-89
2022/01/04 11:22:55;;;;;;;23.58;14.75;;;;;;;7.15;94.68;99636.22;5031670;28;20030;-90
2022/01/04 11:25:22;;;;;;;23.42;15.35;;;;;;;7.09;94.30;99639.00;5031713;28;20033;-89
2022/01/04 11:27:49;;;;;;;10.18;7.78;;;;;;;7.02;92.64;99637.44;5033966;28;20048;-90
2022/01/04 11:30:25;;;;;;;12.93;7.82;;;;;;;6.89;92.76;99634.25;5048515;28;20485;-88
2022/01/04 11:33:02;;;;;;;15.93;8.80;;;;;;;6.84;92.72;99637.00;5036939;28;20068;-88
2022/01/04 11:35:29;;;;;;;13.15;8.25;;;;;;;6.81;92.80;99649.38;5044772;28;20026;-88
2022/01/04 11:37:59;;;;;;;14.15;8.77;;;;;;;6.75;93.06;99654.78;5031093;28;20029;-89
2022/01/04 11:40:43;;;;;;;14.65;9.18;;;;;;;6.68;93.48;99656.72;5032732;28;20053;-88
2022/01/04 11:43:47;;;;;;;16.83;9.35;;;;;;;6.65;94.26;99656.78;5027302;28;20485;-88